createdAt,value
2022-09-25T00:01:32.142Z,10.70
2022-09-25T00:03:59.736Z,13.77
2022-09-25T00:06:28.412Z,15.80
2022-09-25T00:08:57.008Z,12.17
2022-09-25T00:11:29.235Z,15.50
2022-09-25T00:14:15.063Z,10.90
2022-09-25T00:16:42.225Z,11.93
2022-09-25T00:19:40.877Z,13.27
2022-09-25T00:22:08.051Z,13.93
2022-09-25T00:24:35.280Z,12.63
2022-09-25T00:27:02.454Z,11.13
2022-09-25T00:29:31.137Z,14.53
2022-09-25T00:32:16.855Z,11.27
2022-09-25T00:34:44.221Z,11.53
2022-09-25T00:37:11.526Z,13.60
2022-09-25T00:39:38.852Z,13.97
2022-09-25T00:42:06.124Z,15.27
2022-09-25T00:44:56.760Z,12.00
2022-09-25T00:47:36.276Z,11.53
2022-09-25T00:50:39.108Z,14.73
2022-09-25T00:53:15.178Z,15.13
2022-09-25T00:55:45.177Z,8.30
2022-09-25T00:58:15.444Z,14.40
2022-09-25T01:00:43.001Z,10.57
2022-09-25T01:03:10.495Z,11.33
2022-09-25T01:05:41.929Z,10.97
2022-09-25T01:08:13.533Z,10.70
2022-09-25T01:10:42.138Z,14.07
2022-09-25T01:13:11.352Z,11.17
2022-09-25T01:15:41.854Z,9.00
2022-09-25T01:18:25.053Z,16.03
2022-09-25T01:21:23.262Z,11.93
2022-09-25T01:24:17.040Z,14.23
2022-09-25T01:27:10.801Z,14.83
2022-09-25T01:29:45.763Z,14.30
2022-09-25T01:32:33.713Z,12.43
2022-09-25T01:35:06.391Z,20.00
2022-09-25T01:37:42.040Z,16.57
2022-09-25T01:40:25.434Z,18.17
2022-09-25T01:42:57.843Z,19.30
2022-09-25T01:45:54.029Z,10.07
2022-09-25T01:48:26.573Z,13.97
2022-09-25T01:51:10.473Z,15.40
2022-09-25T01:53:47.867Z,19.37
2022-09-25T01:56:33.176Z,12.37
2022-09-25T01:59:07.728Z,14.13
2022-09-25T02:01:40.882Z,17.87
2022-09-25T02:04:23.281Z,16.73
2022-09-25T02:06:52.887Z,18.00
2022-09-25T02:09:25.611Z,12.77
2022-09-25T02:11:59.962Z,10.80
2022-09-25T02:14:39.256Z,14.87
2022-09-25T02:17:15.638Z,16.77
2022-09-25T02:20:01.320Z,12.63
2022-09-25T02:22:34.562Z,15.33
2022-09-25T02:25:12.670Z,10.83
2022-09-25T02:27:39.934Z,9.90
2022-09-25T02:30:07.602Z,15.93
2022-09-25T02:32:36.185Z,18.30
2022-09-25T02:35:05.235Z,15.73
2022-09-25T02:37:32.465Z,13.17
2022-09-25T02:40:02.230Z,13.17
2022-09-25T02:43:14.531Z,15.47
2022-09-25T02:45:56.761Z,10.43
2022-09-25T02:48:37.143Z,19.90
2022-09-25T02:51:33.624Z,12.40
2022-09-25T02:54:11.671Z,17.33
2022-09-25T02:56:52.803Z,11.50
2022-09-25T02:59:29.666Z,10.70
2022-09-25T03:02:16.940Z,12.37
2022-09-25T03:04:54.042Z,10.20
2022-09-25T03:07:21.586Z,11.93
2022-09-25T03:09:53.075Z,9.93
2022-09-25T03:12:20.286Z,16.77
2022-09-25T03:14:47.477Z,14.23
2022-09-25T03:17:17.631Z,16.50
2022-09-25T03:19:44.774Z,13.17
2022-09-25T03:22:12.131Z,15.67
2022-09-25T03:24:39.284Z,16.53
2022-09-25T03:27:06.356Z,17.33
2022-09-25T03:29:33.818Z,15.87
2022-09-25T03:32:02.199Z,18.20
2022-09-25T03:34:29.317Z,10.60
2022-09-25T03:36:56.398Z,11.80
2022-09-25T03:39:23.536Z,13.37
2022-09-25T03:41:50.692Z,12.47
2022-09-25T03:44:17.823Z,10.17
2022-09-25T03:46:47.676Z,17.77
2022-09-25T03:49:18.083Z,16.73
2022-09-25T03:51:46.876Z,13.77
2022-09-25T03:54:14.227Z,20.27
2022-09-25T03:56:44.285Z,16.03
2022-09-25T03:59:11.393Z,9.87
2022-09-25T04:01:39.018Z,19.10
2022-09-25T04:04:19.022Z,11.57
2022-09-25T04:06:46.034Z,12.03
2022-09-25T04:09:13.199Z,11.73
2022-09-25T04:11:40.292Z,18.33
2022-09-25T04:14:07.369Z,14.60
2022-09-25T04:16:34.727Z,11.43
2022-09-25T04:19:01.795Z,10.83
2022-09-25T04:21:28.861Z,15.97
2022-09-25T04:24:14.348Z,11.37
2022-09-25T04:26:43.766Z,11.93
2022-09-25T04:29:10.835Z,10.30
2022-09-25T04:31:37.933Z,11.73
2022-09-25T04:34:04.964Z,11.97
2022-09-25T04:36:32.070Z,8.50
2022-09-25T04:38:59.089Z,15.63
2022-09-25T04:41:26.154Z,19.20
2022-09-25T04:43:53.244Z,17.83
2022-09-25T04:46:22.675Z,18.40
2022-09-25T04:48:50.210Z,17.47
2022-09-25T04:51:17.360Z,13.60
2022-09-25T04:53:44.388Z,12.17
2022-09-25T04:56:16.397Z,14.23
2022-09-25T04:58:46.469Z,10.67
2022-09-25T05:01:13.676Z,13.97
2022-09-25T05:03:40.948Z,13.00
2022-09-25T05:06:08.465Z,14.47
2022-09-25T05:08:35.441Z,15.17
2022-09-25T05:11:03.552Z,15.20
2022-09-25T05:13:30.721Z,14.20
2022-09-25T05:15:58.112Z,9.63
2022-09-25T05:18:25.706Z,14.70
2022-09-25T05:20:54.366Z,9.27
2022-09-25T05:23:22.248Z,11.47
2022-09-25T05:26:00.709Z,13.67
2022-09-25T05:28:32.013Z,10.30
2022-09-25T05:31:03.885Z,11.40
2022-09-25T05:33:32.299Z,15.00
2022-09-25T05:36:07.665Z,15.97
2022-09-25T05:38:36.532Z,11.73
2022-09-25T05:41:12.845Z,17.87
2022-09-25T05:43:43.148Z,16.37
2022-09-25T05:46:11.258Z,8.60
2022-09-25T05:48:38.372Z,10.93
2022-09-25T05:51:05.477Z,10.37
2022-09-25T05:53:32.887Z,12.00
2022-09-25T05:56:02.130Z,14.97
2022-09-25T05:58:31.047Z,10.40
2022-09-25T06:01:03.232Z,12.77
2022-09-25T06:03:31.104Z,10.83
2022-09-25T06:05:59.805Z,15.23
2022-09-25T06:08:32.812Z,16.20
2022-09-25T06:11:02.350Z,11.77
2022-09-25T06:13:34.854Z,18.67
2022-09-25T06:16:02.948Z,12.37
2022-09-25T06:18:30.106Z,10.23
2022-09-25T06:21:02.579Z,16.93
2022-09-25T06:23:30.471Z,9.20
2022-09-25T06:26:06.120Z,9.80
2022-09-25T06:28:34.383Z,12.50
2022-09-25T06:31:02.821Z,13.10
2022-09-25T06:33:30.682Z,11.20
2022-09-25T06:35:58.000Z,14.10
2022-09-25T06:38:25.395Z,15.83
2022-09-25T06:40:52.781Z,12.17
2022-09-25T06:43:20.115Z,15.33
2022-09-25T06:45:51.266Z,14.40
2022-09-25T06:48:18.497Z,18.43
2022-09-25T06:50:48.946Z,13.70
2022-09-25T06:53:17.449Z,17.07
2022-09-25T06:55:45.334Z,16.80
2022-09-25T06:58:23.436Z,18.20
2022-09-25T07:00:52.428Z,17.80
2022-09-25T07:03:38.434Z,19.17
2022-09-25T07:06:08.074Z,19.43
2022-09-25T07:08:35.298Z,18.47
2022-09-25T07:11:02.770Z,16.60
2022-09-25T07:13:32.696Z,14.23
2022-09-25T07:16:02.228Z,18.33
2022-09-25T07:18:30.264Z,19.33
2022-09-25T07:21:15.011Z,18.33
2022-09-25T07:23:42.757Z,13.20
2022-09-25T07:26:22.704Z,16.40
2022-09-25T07:28:58.414Z,17.33
2022-09-25T07:31:27.952Z,16.87
2022-09-25T07:33:59.320Z,15.97
2022-09-25T07:36:26.557Z,14.97
2022-09-25T07:38:54.468Z,15.60
2022-09-25T07:41:24.039Z,15.47
2022-09-25T07:46:46.123Z,14.20
2022-09-25T07:49:14.105Z,14.20
2022-09-25T07:51:41.299Z,13.80
2022-09-25T07:54:08.861Z,13.80
2022-09-25T07:56:38.168Z,12.63
2022-09-25T07:59:05.452Z,14.30
2022-09-25T08:01:32.678Z,12.57
2022-09-25T08:04:04.930Z,13.43
2022-09-25T08:06:35.993Z,12.70
2022-09-25T08:09:08.126Z,12.27
2022-09-25T08:11:37.812Z,14.87
2022-09-25T08:14:05.024Z,12.90
2022-09-25T08:16:32.902Z,12.67
2022-09-25T08:18:59.896Z,12.80
2022-09-25T08:21:27.025Z,10.63
2022-09-25T08:23:55.364Z,10.93
2022-09-25T08:26:23.109Z,13.43
2022-09-25T08:28:50.961Z,9.73
2022-09-25T08:31:18.386Z,11.67
2022-09-25T08:33:50.195Z,9.23
2022-09-25T08:36:18.202Z,11.33
2022-09-25T08:38:45.701Z,11.30
2022-09-25T08:41:24.498Z,11.80
2022-09-25T08:44:04.934Z,13.70
2022-09-25T08:46:59.186Z,10.90
2022-09-25T08:49:31.197Z,12.03
2022-09-25T08:52:03.107Z,15.97
2022-09-25T08:54:33.965Z,16.57
2022-09-25T08:57:37.247Z,14.80
2022-09-25T09:00:21.800Z,14.77
2022-09-25T09:02:54.938Z,13.80
2022-09-25T09:05:27.646Z,16.50
2022-09-25T09:08:00.848Z,14.87
2022-09-25T09:10:36.156Z,12.70
2022-09-25T09:13:18.425Z,13.00
2022-09-25T09:15:54.246Z,13.60
2022-09-25T09:18:27.405Z,15.00
2022-09-25T09:21:04.277Z,17.07
2022-09-25T09:23:48.898Z,14.37
2022-09-25T09:26:40.367Z,13.23
2022-09-25T09:29:41.086Z,14.83
2022-09-25T09:32:11.377Z,14.50
2022-09-25T09:35:33.485Z,14.20
2022-09-25T09:38:16.395Z,13.63
2022-09-25T09:41:24.355Z,14.10
2022-09-25T09:43:58.769Z,13.23
2022-09-25T09:46:44.784Z,11.00
2022-09-25T09:49:33.830Z,12.83
2022-09-25T09:52:22.746Z,12.07
2022-09-25T09:54:59.785Z,11.37
2022-09-25T09:57:31.339Z,11.27
2022-09-25T10:00:13.750Z,11.63
2022-09-25T10:02:46.331Z,11.00
2022-09-25T10:05:27.961Z,12.27
2022-09-25T10:07:55.272Z,9.83
2022-09-25T10:10:37.380Z,11.07
2022-09-25T10:13:11.276Z,12.27
2022-09-25T10:15:48.703Z,9.87
2022-09-25T10:18:16.726Z,11.13
2022-09-25T10:20:55.431Z,10.43
2022-09-25T10:23:47.043Z,11.27
2022-09-25T10:26:33.380Z,12.57
2022-09-25T10:29:02.514Z,9.50
2022-09-25T10:31:40.661Z,8.70
2022-09-25T10:34:13.955Z,9.47
2022-09-25T10:36:47.047Z,8.80
2022-09-25T10:39:46.271Z,11.60
2022-09-25T10:42:46.134Z,10.10
2022-09-25T10:45:32.741Z,9.90
2022-09-25T10:48:19.015Z,7.43
2022-09-25T10:51:06.702Z,9.23
2022-09-25T10:53:35.075Z,10.77
2022-09-25T10:56:12.635Z,8.57
2022-09-25T10:59:02.350Z,9.97
2022-09-25T11:01:39.353Z,9.30
2022-09-25T11:04:16.583Z,6.93
2022-09-25T11:06:52.495Z,7.30
2022-09-25T11:09:22.810Z,7.90
2022-09-25T11:11:54.385Z,8.97
2022-09-25T11:14:32.550Z,6.50
2022-09-25T11:17:02.359Z,6.70
2022-09-25T11:19:32.355Z,7.73
2022-09-25T11:22:17.827Z,7.23
2022-09-25T11:24:48.415Z,10.73
2022-09-25T11:27:26.688Z,7.10
2022-09-25T11:30:02.842Z,7.77
2022-09-25T11:32:52.842Z,6.60
2022-09-25T11:35:33.197Z,7.17
2022-09-25T11:38:03.711Z,7.57
2022-09-25T11:41:11.432Z,6.77
2022-09-25T11:44:12.498Z,6.47
2022-09-25T11:46:46.914Z,9.63
2022-09-25T11:49:17.278Z,8.43
2022-09-25T11:52:16.558Z,6.60
2022-09-25T11:55:05.886Z,6.90
2022-09-25T11:57:51.786Z,6.00
2022-09-25T12:00:47.335Z,7.53
2022-09-25T12:03:35.361Z,7.30
2022-09-25T12:06:29.909Z,7.23
2022-09-25T12:09:16.533Z,6.87
2022-09-25T12:12:01.979Z,5.70
2022-09-25T12:15:01.791Z,5.43
2022-09-25T12:17:41.073Z,4.83
2022-09-25T12:20:27.551Z,9.07
2022-09-25T12:23:19.948Z,6.73
2022-09-25T12:26:15.074Z,6.93
2022-09-25T12:29:00.399Z,5.97
2022-09-25T12:31:39.570Z,6.23
2022-09-25T12:34:26.911Z,5.90
2022-09-25T12:37:04.454Z,6.63
2022-09-25T12:39:45.160Z,5.30
2022-09-25T12:42:19.711Z,5.93
2022-09-25T12:44:56.419Z,4.77
2022-09-25T12:47:41.382Z,5.50
2022-09-25T12:50:28.706Z,6.37
2022-09-25T12:53:20.753Z,6.07
2022-09-25T12:55:58.408Z,6.40
2022-09-25T12:58:44.915Z,5.80
2022-09-25T13:01:45.999Z,3.90
2022-09-25T13:04:34.715Z,5.17
2022-09-25T13:07:17.973Z,5.23
2022-09-25T13:09:47.303Z,6.97
2022-09-25T13:12:49.824Z,6.77
2022-09-25T13:15:23.986Z,4.90
2022-09-25T13:17:51.426Z,4.67
2022-09-25T13:20:42.425Z,4.53
2022-09-25T13:23:16.977Z,5.80
2022-09-25T13:26:02.716Z,4.37
2022-09-25T13:29:00.700Z,7.90
2022-09-25T13:31:30.457Z,3.67
2022-09-25T13:34:05.622Z,4.20
2022-09-25T13:36:47.903Z,5.73
2022-09-25T13:39:44.797Z,6.27
2022-09-25T13:42:55.588Z,3.53
2022-09-25T13:45:34.885Z,4.27
2022-09-25T13:48:32.146Z,4.10
2022-09-25T13:51:33.864Z,6.70
2022-09-25T13:54:24.168Z,4.60
2022-09-25T13:56:53.463Z,3.97
2022-09-25T13:59:39.143Z,3.87
2022-09-25T14:02:44.081Z,4.67
2022-09-25T14:05:20.981Z,4.77
2022-09-25T14:07:51.277Z,4.33
2022-09-25T14:10:19.190Z,4.40
2022-09-25T14:12:48.787Z,4.50
2022-09-25T14:15:19.011Z,5.90
2022-09-25T14:17:50.903Z,4.90
2022-09-25T14:20:31.039Z,3.13
2022-09-25T14:23:03.354Z,3.13
2022-09-25T14:25:42.760Z,3.43
2022-09-25T14:28:25.958Z,3.20
2022-09-25T14:31:14.628Z,2.80
2022-09-25T14:34:12.664Z,3.13
2022-09-25T14:37:07.034Z,3.47
2022-09-25T14:39:46.196Z,3.40
2022-09-25T14:42:37.537Z,3.53
2022-09-25T14:45:40.676Z,17.27
2022-09-25T14:48:21.546Z,4.67
2022-09-25T14:50:53.796Z,3.40
2022-09-25T14:53:53.994Z,3.30
2022-09-25T14:56:22.580Z,5.30
2022-09-25T14:58:54.667Z,3.40
2022-09-25T15:01:29.544Z,5.40
2022-09-25T15:04:05.557Z,2.97
2022-09-25T15:06:39.264Z,4.47
2022-09-25T15:09:47.719Z,3.97
2022-09-25T15:12:31.143Z,5.73
2022-09-25T15:15:11.447Z,4.03
2022-09-25T15:17:49.514Z,3.97
2022-09-25T15:20:19.720Z,3.77
2022-09-25T15:22:57.119Z,4.47
2022-09-25T15:25:28.999Z,5.80
2022-09-25T15:28:00.298Z,5.13
2022-09-25T15:30:28.413Z,4.10
2022-09-25T15:33:00.527Z,3.07
2022-09-25T15:35:57.025Z,3.13
2022-09-25T15:38:40.015Z,4.00
2022-09-25T15:41:09.602Z,4.13
2022-09-25T15:43:36.693Z,4.53
2022-09-25T15:46:10.268Z,4.57
2022-09-25T15:48:41.383Z,4.93
2022-09-25T15:51:24.556Z,3.73
2022-09-25T15:54:04.467Z,4.17
2022-09-25T15:56:49.991Z,3.97
2022-09-25T15:59:21.366Z,3.90
2022-09-25T16:02:07.763Z,4.47
2022-09-25T16:04:49.250Z,4.37
2022-09-25T16:07:20.650Z,3.77
2022-09-25T16:09:48.395Z,4.20
2022-09-25T16:12:25.598Z,4.47
2022-09-25T16:14:55.189Z,3.50
2022-09-25T16:17:29.424Z,4.03
2022-09-25T16:20:02.029Z,2.80
2022-09-25T16:22:37.556Z,4.20
2022-09-25T16:25:31.109Z,11.03
2022-09-25T16:28:08.450Z,5.73
2022-09-25T16:30:35.818Z,4.90
2022-09-25T16:33:23.367Z,6.53
2022-09-25T16:36:10.603Z,5.20
2022-09-25T16:38:38.496Z,5.03
2022-09-25T16:41:14.585Z,4.43
2022-09-25T16:43:44.232Z,4.07
2022-09-25T16:46:19.551Z,5.43
2022-09-25T16:48:58.816Z,6.17
2022-09-25T16:51:26.983Z,5.50
2022-09-25T16:53:59.922Z,6.33
2022-09-25T16:56:29.765Z,4.00
2022-09-25T16:58:58.469Z,5.87
2022-09-25T17:01:27.758Z,3.83
2022-09-25T17:03:59.759Z,7.93
2022-09-25T17:06:40.811Z,4.60
2022-09-25T17:09:12.393Z,8.57
2022-09-25T17:11:44.537Z,8.77
2022-09-25T17:14:24.934Z,6.43
2022-09-25T17:16:53.794Z,4.57
2022-09-25T17:19:21.723Z,6.80
2022-09-25T17:21:51.574Z,5.73
2022-09-25T17:24:25.207Z,5.47
2022-09-25T17:26:53.228Z,6.93
2022-09-25T17:29:21.166Z,6.90
2022-09-25T17:31:48.233Z,6.17
2022-09-25T17:34:16.869Z,8.43
2022-09-25T17:36:44.768Z,7.10
2022-09-25T17:39:12.136Z,6.17
2022-09-25T17:41:39.933Z,6.20
2022-09-25T17:44:09.079Z,10.80
2022-09-25T17:46:36.431Z,7.33
2022-09-25T17:49:04.065Z,5.63
2022-09-25T17:51:31.270Z,5.23
2022-09-25T17:54:02.106Z,7.67
2022-09-25T17:56:34.157Z,6.80
2022-09-25T17:59:02.311Z,7.90
2022-09-25T18:01:36.537Z,3.50
2022-09-25T18:04:32.949Z,5.63
2022-09-25T18:07:00.056Z,3.03
2022-09-25T18:09:27.205Z,4.87
2022-09-25T18:11:56.699Z,7.77
2022-09-25T18:14:24.649Z,5.00
2022-09-25T18:16:51.775Z,6.43
2022-09-25T18:19:38.519Z,6.20
2022-09-25T18:22:19.067Z,6.00
2022-09-25T18:24:56.743Z,5.03
2022-09-25T18:27:26.947Z,4.63
2022-09-25T18:30:01.025Z,3.87
2022-09-25T18:32:28.206Z,3.13
2022-09-25T18:34:55.281Z,7.50
2022-09-25T18:37:22.423Z,4.53
2022-09-25T18:39:49.986Z,6.47
2022-09-25T18:42:18.094Z,5.03
2022-09-25T18:44:48.417Z,4.73
2022-09-25T18:47:15.582Z,4.00
2022-09-25T18:49:43.710Z,4.83
2022-09-25T18:52:11.654Z,4.87
2022-09-25T18:54:42.233Z,8.53
2022-09-25T18:57:11.740Z,5.07
2022-09-25T18:59:45.140Z,4.93
2022-09-25T19:02:20.150Z,6.03
2022-09-25T19:04:48.190Z,5.03
2022-09-25T19:07:15.905Z,10.00
2022-09-25T19:09:43.187Z,10.93
2022-09-25T19:12:46.279Z,7.10
2022-09-25T19:15:22.518Z,10.03
2022-09-25T19:17:56.311Z,7.80
2022-09-25T19:20:59.650Z,9.63
2022-09-25T19:23:34.254Z,12.27
2022-09-25T19:26:06.793Z,21.63
2022-09-25T19:28:48.979Z,16.30
2022-09-25T19:31:25.954Z,22.67
2022-09-25T19:33:58.181Z,15.17
2022-09-25T19:36:34.926Z,14.77
2022-09-25T19:39:03.347Z,17.53
2022-09-25T19:41:52.829Z,11.33
2022-09-25T19:44:26.457Z,21.30
2022-09-25T19:47:08.718Z,10.23
2022-09-25T19:49:38.234Z,8.10
2022-09-25T19:52:12.071Z,8.40
2022-09-25T19:54:43.788Z,4.40
2022-09-25T19:57:14.801Z,8.00
2022-09-25T19:59:53.601Z,3.93
2022-09-25T20:02:24.551Z,9.67
2022-09-25T20:04:56.398Z,5.07
2022-09-25T20:07:26.700Z,9.23
2022-09-25T20:10:06.018Z,8.07
2022-09-25T20:12:36.855Z,9.37
2022-09-25T20:15:13.867Z,9.63
2022-09-25T20:17:49.526Z,9.17
2022-09-25T20:20:26.307Z,8.93
2022-09-25T20:22:59.153Z,6.90
2022-09-25T20:25:29.944Z,5.43
2022-09-25T20:28:00.435Z,9.63
2022-09-25T20:30:39.032Z,13.77
2022-09-25T20:33:09.393Z,7.43
2022-09-25T20:35:36.617Z,7.03
2022-09-25T20:38:03.756Z,8.23
2022-09-25T20:40:33.759Z,6.97
2022-09-25T20:43:00.951Z,9.80
2022-09-25T20:45:28.108Z,10.53
2022-09-25T20:48:03.988Z,9.90
2022-09-25T20:50:31.559Z,9.70
2022-09-25T20:52:58.697Z,8.27
2022-09-25T20:55:25.823Z,7.53
2022-09-25T20:57:52.851Z,12.87
2022-09-25T21:00:20.390Z,10.57
2022-09-25T21:02:47.686Z,7.03
2022-09-25T21:05:14.828Z,10.13
2022-09-25T21:07:42.171Z,4.83
2022-09-25T21:10:09.765Z,6.30
2022-09-25T21:12:36.883Z,8.83
2022-09-25T21:15:04.415Z,8.97
2022-09-25T21:17:31.808Z,5.63
2022-09-25T21:20:00.176Z,6.33
2022-09-25T21:22:27.364Z,8.83
2022-09-25T21:25:00.364Z,8.40
2022-09-25T21:27:30.315Z,5.67
2022-09-25T21:29:58.576Z,10.83
2022-09-25T21:32:25.689Z,9.63
2022-09-25T21:34:52.787Z,9.20
2022-09-25T21:37:19.853Z,6.27
2022-09-25T21:39:47.014Z,8.80
2022-09-25T21:42:14.166Z,7.70
2022-09-25T21:44:41.293Z,8.70
2022-09-25T21:47:08.390Z,7.60
2022-09-25T21:49:35.725Z,8.90
2022-09-25T21:52:02.750Z,5.33
2022-09-25T21:54:31.299Z,7.30
2022-09-25T21:56:58.413Z,10.10
2022-09-25T21:59:25.764Z,11.33
2022-09-25T22:01:52.853Z,10.43
2022-09-25T22:04:20.037Z,6.80
2022-09-25T22:06:48.191Z,7.50
2022-09-25T22:09:20.473Z,8.60
2022-09-25T22:11:51.176Z,6.67
2022-09-25T22:14:20.200Z,8.27
2022-09-25T22:16:50.507Z,10.53
2022-09-25T22:19:21.780Z,7.40
2022-09-25T22:21:50.392Z,7.03
2022-09-25T22:24:18.012Z,7.27
2022-09-25T22:26:46.981Z,8.50
2022-09-25T22:29:16.103Z,10.87
2022-09-25T22:31:44.408Z,7.67
2022-09-25T22:34:27.055Z,9.83
2022-09-25T22:36:59.501Z,4.83
2022-09-25T22:39:28.247Z,6.40
2022-09-25T22:41:55.929Z,6.17
2022-09-25T22:44:24.062Z,5.70
2022-09-25T22:46:51.429Z,6.83
2022-09-25T22:49:18.944Z,8.87
2022-09-25T22:51:46.092Z,7.83
2022-09-25T22:54:14.596Z,7.03
2022-09-25T22:56:42.207Z,7.80
2022-09-25T22:59:13.456Z,4.97
2022-09-25T23:01:52.585Z,7.17
2022-09-25T23:04:24.300Z,9.50
2022-09-25T23:06:52.366Z,6.33
2022-09-25T23:09:27.024Z,5.80
2022-09-25T23:11:55.806Z,4.90
2022-09-25T23:14:26.286Z,8.67
2022-09-25T23:16:54.668Z,4.17
2022-09-25T23:19:22.535Z,5.30
2022-09-25T23:21:51.759Z,5.80
2022-09-25T23:24:20.058Z,7.93
2022-09-25T23:26:51.524Z,3.43
2022-09-25T23:29:20.367Z,3.87
2022-09-25T23:31:48.625Z,5.53
2022-09-25T23:34:18.952Z,4.77
2022-09-25T23:36:46.464Z,6.83
2022-09-25T23:39:17.810Z,11.33
2022-09-25T23:41:48.328Z,6.37
2022-09-25T23:44:15.638Z,5.07
2022-09-25T23:46:44.068Z,5.50
2022-09-25T23:49:11.752Z,7.40
2022-09-25T23:51:39.408Z,4.00
2022-09-25T23:54:09.781Z,6.50
2022-09-25T23:56:37.089Z,7.00
2022-09-25T23:59:05.280Z,4.50
